createdAt,value
2022-12-18T00:01:15.833Z,63.83
2022-12-18T00:02:47.697Z,67.28
2022-12-18T00:04:21.383Z,69.25
2022-12-18T00:05:53.254Z,65.13
2022-12-18T00:07:24.891Z,72.55
2022-12-18T00:08:56.904Z,75.25
2022-12-18T00:10:28.580Z,80.15
2022-12-18T00:13:47.580Z,65.63
2022-12-18T00:15:20.555Z,65.47
2022-12-18T00:16:52.233Z,70.82
2022-12-18T00:18:23.867Z,74.28
2022-12-18T00:19:55.474Z,62.42
2022-12-18T00:21:27.305Z,68.03
2022-12-18T00:22:58.954Z,62.75
2022-12-18T00:24:30.617Z,64.75
2022-12-18T00:26:02.527Z,71.20
2022-12-18T00:27:34.169Z,71.50
2022-12-18T00:29:07.158Z,69.63
2022-12-18T00:30:40.164Z,67.45
2022-12-18T00:32:11.842Z,62.95
2022-12-18T00:33:43.778Z,73.47
2022-12-18T00:35:15.493Z,75.40
2022-12-18T00:36:48.280Z,67.25
2022-12-18T00:38:19.988Z,64.43
2022-12-18T00:39:51.660Z,61.60
2022-12-18T00:41:41.958Z,75.68
2022-12-18T00:43:13.590Z,72.15
2022-12-18T00:44:45.234Z,63.63
2022-12-18T00:46:18.265Z,63.80
2022-12-18T00:47:49.958Z,68.38
2022-12-18T00:49:21.669Z,68.75
2022-12-18T00:50:53.325Z,68.25
2022-12-18T00:52:24.978Z,69.82
2022-12-18T00:53:56.598Z,67.55
2022-12-18T00:55:28.203Z,79.05
2022-12-18T00:56:59.833Z,64.15
2022-12-18T00:58:31.848Z,70.90
2022-12-18T01:00:04.488Z,64.53
2022-12-18T01:01:37.935Z,72.45
2022-12-18T01:03:10.390Z,64.85
2022-12-18T01:04:42.035Z,63.85
2022-12-18T01:06:14.175Z,71.00
2022-12-18T01:07:45.919Z,72.70
2022-12-18T01:09:17.669Z,59.80
2022-12-18T01:10:49.404Z,63.88
2022-12-18T01:12:21.153Z,81.50
2022-12-18T01:13:53.582Z,64.72
2022-12-18T01:15:25.280Z,66.53
2022-12-18T01:16:58.438Z,64.55
2022-12-18T01:18:30.167Z,69.63
2022-12-18T01:20:01.894Z,66.38
2022-12-18T01:21:33.652Z,66.40
2022-12-18T01:23:05.415Z,71.75
2022-12-18T01:24:37.144Z,65.15
2022-12-18T01:26:09.262Z,61.47
2022-12-18T01:27:40.904Z,69.95
2022-12-18T01:29:12.591Z,62.20
2022-12-18T01:30:44.310Z,71.90
2022-12-18T01:32:17.642Z,64.05
2022-12-18T01:33:49.401Z,63.15
2022-12-18T01:35:21.121Z,67.93
2022-12-18T01:36:53.197Z,64.80
2022-12-18T01:38:24.949Z,65.82
2022-12-18T01:39:56.602Z,80.00
2022-12-18T01:41:49.132Z,60.22
2022-12-18T01:43:20.818Z,65.55
2022-12-18T01:45:00.712Z,68.95
2022-12-18T01:46:32.356Z,63.60
2022-12-18T01:48:06.761Z,64.50
2022-12-18T01:49:38.461Z,62.90
2022-12-18T01:51:11.108Z,63.75
2022-12-18T01:52:43.297Z,61.25
2022-12-18T01:54:14.987Z,69.20
2022-12-18T01:55:47.765Z,63.38
2022-12-18T01:57:19.458Z,65.57
2022-12-18T01:58:54.462Z,72.18
2022-12-18T02:00:26.490Z,66.85
2022-12-18T02:01:58.299Z,66.72
2022-12-18T02:03:31.519Z,69.97
2022-12-18T02:05:03.530Z,82.65
2022-12-18T02:06:38.800Z,85.57
2022-12-18T02:08:11.735Z,66.07
2022-12-18T02:09:47.637Z,81.25
2022-12-18T02:11:27.072Z,72.93
2022-12-18T02:13:02.396Z,74.75
2022-12-18T02:14:37.635Z,72.20
2022-12-18T02:16:11.663Z,72.78
2022-12-18T02:17:44.893Z,71.05
2022-12-18T02:19:39.145Z,74.35
2022-12-18T02:21:13.927Z,77.55
2022-12-18T02:22:53.467Z,70.95
2022-12-18T02:24:30.522Z,78.75
2022-12-18T02:26:16.452Z,76.20
2022-12-18T02:27:48.223Z,76.40
2022-12-18T02:29:22.517Z,69.82
2022-12-18T02:30:54.250Z,70.82
2022-12-18T02:32:28.058Z,69.35
2022-12-18T02:34:00.869Z,73.55
2022-12-18T02:35:32.597Z,69.68
2022-12-18T02:37:05.547Z,71.32
2022-12-18T02:38:37.276Z,66.97
2022-12-18T02:40:10.230Z,75.43
2022-12-18T02:41:43.293Z,82.60
2022-12-18T02:43:16.342Z,69.10
2022-12-18T02:44:48.774Z,71.85
2022-12-18T02:46:32.290Z,70.10
2022-12-18T02:48:04.124Z,70.45
2022-12-18T02:49:37.875Z,76.43
2022-12-18T02:51:12.064Z,72.82
2022-12-18T02:52:47.495Z,64.85
2022-12-18T02:54:24.427Z,65.93
2022-12-18T02:56:01.769Z,70.35
2022-12-18T02:57:37.800Z,70.32
2022-12-18T02:59:12.353Z,86.38
2022-12-18T03:00:45.021Z,82.55
2022-12-18T03:02:21.343Z,77.45
2022-12-18T03:03:55.866Z,67.25
2022-12-18T03:05:29.339Z,81.53
2022-12-18T03:07:02.785Z,66.20
2022-12-18T03:08:36.937Z,72.85
2022-12-18T03:10:10.205Z,67.05
2022-12-18T03:12:01.652Z,64.47
2022-12-18T03:13:36.267Z,72.22
2022-12-18T03:15:14.545Z,76.00
2022-12-18T03:16:49.293Z,61.58
2022-12-18T03:18:22.691Z,64.53
2022-12-18T03:19:54.658Z,68.55
2022-12-18T03:21:28.028Z,65.70
2022-12-18T03:23:02.378Z,61.22
2022-12-18T03:24:34.083Z,61.78
2022-12-18T03:26:08.164Z,78.32
2022-12-18T03:27:41.893Z,66.75
2022-12-18T03:29:16.529Z,65.00
2022-12-18T03:30:48.896Z,73.25
2022-12-18T03:32:24.651Z,71.88
2022-12-18T03:33:57.152Z,62.67
2022-12-18T03:35:30.649Z,69.50
2022-12-18T03:37:04.143Z,62.83
2022-12-18T03:38:35.789Z,69.13
2022-12-18T03:40:08.335Z,65.40
2022-12-18T03:41:44.497Z,71.07
2022-12-18T03:43:19.633Z,64.15
2022-12-18T03:44:55.293Z,77.68
2022-12-18T03:46:28.724Z,72.28
2022-12-18T03:48:02.162Z,71.00
2022-12-18T03:49:35.596Z,71.25
2022-12-18T03:51:08.701Z,62.67
2022-12-18T03:52:43.655Z,68.22
2022-12-18T03:54:15.324Z,68.88
2022-12-18T03:55:46.964Z,73.07
2022-12-18T03:57:20.067Z,70.97
2022-12-18T03:58:51.745Z,65.75
2022-12-18T04:00:24.852Z,70.53
2022-12-18T04:01:56.564Z,73.10
2022-12-18T04:03:28.525Z,73.07
2022-12-18T04:05:01.444Z,71.13
2022-12-18T04:06:33.101Z,68.05
2022-12-18T04:08:05.009Z,68.50
2022-12-18T04:09:37.271Z,70.45
2022-12-18T04:11:08.918Z,73.72
2022-12-18T04:12:40.613Z,69.05
2022-12-18T04:14:17.572Z,67.18
2022-12-18T04:15:51.287Z,72.43
2022-12-18T04:17:23.471Z,75.15
2022-12-18T04:18:55.164Z,69.18
2022-12-18T04:20:26.863Z,69.35
2022-12-18T04:21:58.664Z,68.60
2022-12-18T04:23:30.437Z,68.30
2022-12-18T04:25:02.113Z,62.35
2022-12-18T04:26:33.798Z,66.25
2022-12-18T04:28:05.539Z,71.35
2022-12-18T04:29:37.252Z,67.68
2022-12-18T04:31:10.309Z,70.38
2022-12-18T04:32:45.516Z,72.18
2022-12-18T04:34:19.403Z,65.95
2022-12-18T04:35:51.279Z,74.90
2022-12-18T04:37:23.007Z,63.38
2022-12-18T04:38:54.743Z,68.10
2022-12-18T04:40:26.476Z,66.28
2022-12-18T04:41:58.207Z,74.50
2022-12-18T04:43:29.902Z,73.65
2022-12-18T04:45:01.591Z,67.38
2022-12-18T04:46:34.764Z,70.78
2022-12-18T04:48:06.593Z,69.72
2022-12-18T04:49:38.317Z,65.72
2022-12-18T04:51:10.020Z,69.53
2022-12-18T04:52:41.743Z,65.55
2022-12-18T04:54:13.523Z,65.03
2022-12-18T04:55:45.223Z,65.63
2022-12-18T04:57:16.988Z,61.35
2022-12-18T04:58:48.719Z,63.05
2022-12-18T05:00:20.653Z,89.05
2022-12-18T05:01:54.192Z,70.90
2022-12-18T05:03:25.973Z,62.17
2022-12-18T05:04:57.641Z,69.35
2022-12-18T05:06:29.318Z,68.68
2022-12-18T05:08:01.136Z,66.10
2022-12-18T05:09:32.926Z,68.72
2022-12-18T05:11:06.015Z,66.63
2022-12-18T05:12:59.034Z,87.57
2022-12-18T05:14:32.877Z,69.15
2022-12-18T05:16:05.245Z,67.32
2022-12-18T05:17:38.339Z,69.65
2022-12-18T05:19:10.132Z,67.13
2022-12-18T05:20:41.863Z,68.05
2022-12-18T05:22:13.567Z,77.13
2022-12-18T05:23:45.421Z,85.13
2022-12-18T05:25:17.263Z,77.40
2022-12-18T05:26:49.005Z,82.68
2022-12-18T05:28:20.952Z,83.25
2022-12-18T05:29:52.812Z,82.97
2022-12-18T05:31:24.648Z,70.75
2022-12-18T05:32:57.862Z,78.03
2022-12-18T05:34:29.592Z,77.35
2022-12-18T05:36:01.625Z,77.32
2022-12-18T05:37:35.860Z,82.03
2022-12-18T05:39:11.422Z,77.75
2022-12-18T05:40:43.976Z,65.65
2022-12-18T05:42:15.722Z,65.97
2022-12-18T05:43:47.457Z,66.22
2022-12-18T05:45:19.198Z,65.22
2022-12-18T05:46:51.025Z,59.72
2022-12-18T05:48:24.179Z,65.28
2022-12-18T05:49:56.012Z,63.60
2022-12-18T05:51:28.008Z,73.95
2022-12-18T05:52:59.761Z,65.07
2022-12-18T05:54:32.073Z,67.53
2022-12-18T05:56:04.111Z,73.80
2022-12-18T05:57:35.870Z,66.18
2022-12-18T05:59:07.561Z,70.60
2022-12-18T06:00:41.391Z,70.90
2022-12-18T06:02:13.328Z,64.53
2022-12-18T06:03:47.119Z,65.68
2022-12-18T06:05:19.103Z,88.43
2022-12-18T06:06:51.933Z,63.47
2022-12-18T06:08:23.726Z,61.47
2022-12-18T06:09:55.517Z,80.25
2022-12-18T06:11:27.543Z,66.90
2022-12-18T06:12:59.410Z,66.70
2022-12-18T06:14:31.193Z,66.97
2022-12-18T06:16:06.252Z,66.88
2022-12-18T06:17:38.301Z,79.82
2022-12-18T06:19:17.535Z,89.07
2022-12-18T06:20:55.990Z,72.40
2022-12-18T06:22:27.777Z,68.30
2022-12-18T06:23:59.819Z,57.30
2022-12-18T06:25:31.790Z,64.60
2022-12-18T06:27:06.083Z,60.90
2022-12-18T06:28:37.919Z,68.90
2022-12-18T06:30:11.173Z,68.90
2022-12-18T06:31:48.807Z,63.15
2022-12-18T06:33:20.793Z,64.45
2022-12-18T06:34:54.874Z,69.22
2022-12-18T06:36:29.932Z,69.40
2022-12-18T06:38:02.425Z,63.72
2022-12-18T06:39:34.264Z,67.32
2022-12-18T06:41:07.934Z,62.05
2022-12-18T06:42:39.974Z,60.97
2022-12-18T06:44:14.027Z,69.40
2022-12-18T06:45:45.830Z,62.53
2022-12-18T06:47:17.593Z,65.30
2022-12-18T06:48:50.888Z,67.50
2022-12-18T06:50:24.069Z,67.30
2022-12-18T06:51:55.799Z,62.10
2022-12-18T06:53:27.585Z,57.20
2022-12-18T06:54:59.365Z,68.78
2022-12-18T06:56:31.299Z,61.60
2022-12-18T06:58:03.080Z,63.30
2022-12-18T06:59:34.786Z,64.22
2022-12-18T07:01:07.511Z,59.85
2022-12-18T07:02:39.659Z,65.75
2022-12-18T07:04:11.547Z,66.20
2022-12-18T07:05:44.736Z,67.03
2022-12-18T07:07:16.626Z,70.10
2022-12-18T07:08:48.482Z,67.68
2022-12-18T07:10:20.198Z,66.28
2022-12-18T07:11:51.963Z,71.50
2022-12-18T07:13:25.676Z,64.70
2022-12-18T07:14:57.399Z,64.45
2022-12-18T07:16:29.645Z,59.88
2022-12-18T07:18:01.397Z,61.22
2022-12-18T07:19:33.127Z,72.03
2022-12-18T07:21:06.784Z,71.10
2022-12-18T07:22:38.496Z,72.05
2022-12-18T07:24:10.147Z,72.05
2022-12-18T07:25:41.800Z,71.85
2022-12-18T07:27:13.539Z,76.03
2022-12-18T07:28:45.289Z,67.18
2022-12-18T07:30:17.115Z,61.35
2022-12-18T07:31:48.973Z,66.65
2022-12-18T07:33:20.757Z,62.25
2022-12-18T07:34:52.508Z,64.95
2022-12-18T07:36:25.708Z,67.47
2022-12-18T07:37:57.438Z,76.43
2022-12-18T07:39:32.391Z,66.25
2022-12-18T07:41:04.530Z,67.15
2022-12-18T07:42:38.688Z,72.00
2022-12-18T07:44:10.993Z,66.30
2022-12-18T07:45:43.376Z,62.40
2022-12-18T07:47:15.263Z,70.38
2022-12-18T07:48:50.027Z,65.53
2022-12-18T07:50:22.204Z,68.18
2022-12-18T07:51:56.334Z,61.95
2022-12-18T07:53:30.869Z,64.07
2022-12-18T07:55:02.682Z,64.32
2022-12-18T07:56:34.453Z,62.53
2022-12-18T07:58:06.297Z,73.25
2022-12-18T07:59:38.163Z,61.58
2022-12-18T08:01:11.283Z,62.55
2022-12-18T08:02:43.478Z,60.72
2022-12-18T08:04:15.307Z,63.90
2022-12-18T08:05:47.034Z,64.15
2022-12-18T08:07:20.103Z,66.05
2022-12-18T08:08:53.146Z,60.97
2022-12-18T08:10:24.774Z,58.75
2022-12-18T08:11:56.474Z,74.15
2022-12-18T08:13:28.177Z,65.70
2022-12-18T08:14:59.879Z,60.22
2022-12-18T08:16:31.698Z,62.60
2022-12-18T08:18:03.680Z,66.28
2022-12-18T08:19:35.433Z,63.10
2022-12-18T08:21:10.522Z,64.20
2022-12-18T08:22:43.851Z,59.67
2022-12-18T08:24:15.695Z,62.30
2022-12-18T08:25:47.472Z,70.65
2022-12-18T08:27:34.617Z,63.63
2022-12-18T08:29:06.372Z,64.55
2022-12-18T08:30:38.105Z,60.88
2022-12-18T08:32:10.505Z,69.07
2022-12-18T08:33:42.617Z,67.28
2022-12-18T08:35:18.620Z,67.15
2022-12-18T08:36:50.614Z,61.88
2022-12-18T08:38:24.276Z,62.92
2022-12-18T08:39:56.074Z,67.70
2022-12-18T08:41:29.873Z,71.00
2022-12-18T08:43:20.814Z,72.53
2022-12-18T08:44:52.640Z,66.70
2022-12-18T08:46:25.833Z,80.18
2022-12-18T08:47:57.733Z,61.85
2022-12-18T08:49:29.529Z,69.38
2022-12-18T08:51:01.321Z,65.22
2022-12-18T08:52:33.336Z,64.78
2022-12-18T08:54:06.721Z,65.72
2022-12-18T08:55:38.609Z,67.20
2022-12-18T08:57:10.627Z,78.28
2022-12-18T08:58:43.106Z,72.05
2022-12-18T09:00:15.536Z,69.65
2022-12-18T09:01:47.984Z,63.85
2022-12-18T09:03:20.003Z,62.08
2022-12-18T09:04:57.499Z,68.38
2022-12-18T09:06:29.563Z,65.15
2022-12-18T09:08:01.424Z,77.93
2022-12-18T09:09:36.689Z,68.22
2022-12-18T09:11:12.916Z,64.97
2022-12-18T09:12:44.649Z,70.10
2022-12-18T09:14:16.430Z,72.38
2022-12-18T09:15:48.927Z,116.10
2022-12-18T09:17:20.903Z,116.38
2022-12-18T09:18:54.623Z,86.85
2022-12-18T09:20:26.310Z,79.20
2022-12-18T09:21:58.048Z,74.05
2022-12-18T09:23:29.829Z,64.68
2022-12-18T09:25:03.067Z,68.63
2022-12-18T09:26:34.811Z,65.35
2022-12-18T09:28:07.486Z,61.92
2022-12-18T09:29:39.264Z,62.78
2022-12-18T09:31:12.628Z,72.32
2022-12-18T09:32:44.437Z,77.63
2022-12-18T09:34:16.369Z,83.95
2022-12-18T09:35:49.970Z,68.70
2022-12-18T09:37:21.769Z,65.15
2022-12-18T09:38:54.254Z,74.40
2022-12-18T09:40:27.760Z,66.88
2022-12-18T09:42:00.070Z,71.70
2022-12-18T09:43:38.678Z,63.60
2022-12-18T09:45:12.878Z,71.93
2022-12-18T09:46:46.232Z,62.72
2022-12-18T09:48:20.323Z,81.72
2022-12-18T09:49:56.275Z,79.47
2022-12-18T09:51:29.884Z,69.20
2022-12-18T09:53:04.023Z,75.65
2022-12-18T09:54:37.937Z,69.50
2022-12-18T09:56:13.545Z,75.95
2022-12-18T09:57:48.952Z,68.45
2022-12-18T09:59:23.996Z,68.00
2022-12-18T10:00:55.766Z,69.55
2022-12-18T10:02:27.810Z,67.45
2022-12-18T10:03:59.807Z,66.38
2022-12-18T10:05:35.704Z,67.85
2022-12-18T10:07:09.598Z,68.15
2022-12-18T10:08:43.836Z,76.25
2022-12-18T10:10:24.262Z,85.57
2022-12-18T10:12:02.766Z,88.57
2022-12-18T10:13:36.126Z,72.93
2022-12-18T10:15:08.601Z,74.20
2022-12-18T10:16:44.106Z,81.57
2022-12-18T10:18:22.665Z,68.38
2022-12-18T10:19:56.459Z,71.10
2022-12-18T10:21:34.720Z,80.28
2022-12-18T10:23:11.533Z,73.15
2022-12-18T10:24:45.788Z,83.53
2022-12-18T10:26:17.542Z,76.57
2022-12-18T10:27:52.743Z,76.97
2022-12-18T10:29:26.381Z,70.28
2022-12-18T10:30:58.142Z,71.20
2022-12-18T10:32:30.939Z,68.75
2022-12-18T10:34:02.685Z,76.32
2022-12-18T10:35:34.386Z,67.93
2022-12-18T10:37:07.742Z,74.45
2022-12-18T10:38:39.868Z,68.97
2022-12-18T10:40:18.455Z,70.43
2022-12-18T10:41:54.045Z,70.72
2022-12-18T10:43:28.231Z,72.53
2022-12-18T10:45:02.357Z,72.20
2022-12-18T10:46:34.123Z,73.30
2022-12-18T10:48:06.185Z,68.85
2022-12-18T10:49:38.030Z,71.55
2022-12-18T10:51:12.806Z,69.72
2022-12-18T10:52:47.826Z,70.25
2022-12-18T10:54:22.101Z,73.75
2022-12-18T10:55:54.910Z,74.28
2022-12-18T10:57:32.711Z,76.93
2022-12-18T10:59:06.920Z,69.40
2022-12-18T11:00:38.903Z,74.00
2022-12-18T11:02:17.508Z,77.68
2022-12-18T11:04:02.596Z,77.97
2022-12-18T11:05:35.006Z,77.90
2022-12-18T11:07:09.855Z,80.18
2022-12-18T11:08:42.468Z,76.40
2022-12-18T11:10:17.264Z,75.15
2022-12-18T11:11:50.156Z,72.53
2022-12-18T11:13:22.835Z,75.90
2022-12-18T11:14:57.052Z,87.55
2022-12-18T11:16:31.951Z,74.25
2022-12-18T11:18:03.831Z,66.55
2022-12-18T11:19:37.707Z,66.95
2022-12-18T11:21:10.811Z,72.55
2022-12-18T11:22:42.671Z,77.00
2022-12-18T11:24:21.049Z,71.45
2022-12-18T11:25:55.989Z,81.80
2022-12-18T11:27:27.728Z,78.07
2022-12-18T11:29:09.199Z,88.90
2022-12-18T11:30:42.483Z,95.95
2022-12-18T11:32:32.808Z,82.65
2022-12-18T11:34:34.697Z,85.43
2022-12-18T11:35:58.792Z,77.65
2022-12-18T11:37:30.791Z,68.80
2022-12-18T11:39:04.597Z,81.65
2022-12-18T11:40:41.046Z,88.57
2022-12-18T11:42:15.246Z,74.93
2022-12-18T11:43:49.531Z,74.97
2022-12-18T11:45:29.374Z,77.50
2022-12-18T11:47:04.485Z,74.53
2022-12-18T11:48:39.188Z,76.90
2022-12-18T11:50:13.171Z,69.65
2022-12-18T11:51:47.075Z,82.60
2022-12-18T11:53:18.960Z,89.97
2022-12-18T11:54:52.759Z,80.85
2022-12-18T11:56:30.795Z,95.30
2022-12-18T11:58:05.917Z,98.10
2022-12-18T11:59:39.837Z,85.78
2022-12-18T12:01:17.671Z,94.70
2022-12-18T12:03:12.917Z,79.90
2022-12-18T12:04:51.607Z,79.38
2022-12-18T12:06:24.848Z,76.35
2022-12-18T12:07:59.549Z,86.03
2022-12-18T12:09:32.833Z,88.18
2022-12-18T12:11:09.548Z,95.50
2022-12-18T12:12:52.531Z,96.00
2022-12-18T12:14:33.371Z,82.75
2022-12-18T12:16:11.167Z,88.75
2022-12-18T12:17:45.469Z,92.63
2022-12-18T12:19:25.743Z,92.97
2022-12-18T12:21:01.777Z,91.07
2022-12-18T12:22:36.690Z,80.65
2022-12-18T12:24:24.940Z,72.38
2022-12-18T12:25:58.644Z,87.20
2022-12-18T12:27:35.054Z,90.03
2022-12-18T12:29:20.946Z,90.97
2022-12-18T12:30:57.423Z,78.82
2022-12-18T12:32:37.150Z,81.40
2022-12-18T12:34:12.505Z,76.85
2022-12-18T12:35:48.803Z,88.15
2022-12-18T12:37:25.343Z,94.70
2022-12-18T12:38:58.412Z,84.72
2022-12-18T12:42:45.895Z,77.30
2022-12-18T12:44:19.533Z,85.75
2022-12-18T12:45:53.461Z,72.97
2022-12-18T12:47:26.653Z,80.47
2022-12-18T12:48:59.330Z,88.10
2022-12-18T12:50:31.299Z,75.18
2022-12-18T12:52:07.362Z,77.47
2022-12-18T12:53:40.361Z,81.53
2022-12-18T12:55:16.103Z,88.32
2022-12-18T12:56:51.393Z,118.90
2022-12-18T12:58:29.205Z,96.43
2022-12-18T13:00:04.792Z,102.35
2022-12-18T13:01:38.495Z,106.60
2022-12-18T13:03:13.625Z,94.35
2022-12-18T13:04:48.530Z,84.70
2022-12-18T13:06:25.431Z,85.90
2022-12-18T13:08:00.462Z,88.05
2022-12-18T13:09:34.888Z,98.43
2022-12-18T13:11:31.866Z,85.28
2022-12-18T13:13:04.921Z,85.90
2022-12-18T13:14:38.059Z,79.75
2022-12-18T13:16:11.632Z,73.68
2022-12-18T13:17:43.527Z,91.38
2022-12-18T13:19:22.703Z,86.93
2022-12-18T13:21:04.002Z,89.35
2022-12-18T13:22:40.191Z,147.75
2022-12-18T13:24:22.437Z,152.80
2022-12-18T13:25:58.080Z,91.43
2022-12-18T13:27:58.376Z,92.90
2022-12-18T13:29:43.294Z,88.18
2022-12-18T13:31:15.326Z,87.88
2022-12-18T13:32:47.082Z,90.22
2022-12-18T13:34:28.080Z,84.43
2022-12-18T13:36:03.050Z,80.53
2022-12-18T13:37:42.289Z,84.60
2022-12-18T13:39:34.132Z,77.43
2022-12-18T13:41:25.436Z,80.00
2022-12-18T13:43:15.393Z,75.50
2022-12-18T13:44:48.183Z,73.53
2022-12-18T13:46:21.879Z,74.72
2022-12-18T13:47:53.566Z,75.78
2022-12-18T13:49:27.317Z,76.13
2022-12-18T13:51:01.236Z,82.82
2022-12-18T13:52:38.598Z,86.50
2022-12-18T13:54:19.884Z,85.57
2022-12-18T13:55:53.202Z,89.47
2022-12-18T13:57:29.478Z,84.45
2022-12-18T13:59:13.061Z,72.63
2022-12-18T14:00:45.047Z,83.70
2022-12-18T14:02:19.094Z,88.00
2022-12-18T14:03:51.243Z,75.97
2022-12-18T14:05:23.749Z,92.43
2022-12-18T14:06:58.392Z,89.50
2022-12-18T14:08:35.181Z,87.03
2022-12-18T14:10:41.319Z,89.25
2022-12-18T14:12:25.235Z,88.50
2022-12-18T14:13:57.612Z,91.55
2022-12-18T14:15:32.326Z,87.57
2022-12-18T14:17:07.658Z,86.55
2022-12-18T14:18:44.200Z,82.53
2022-12-18T14:20:16.620Z,71.72
2022-12-18T14:21:49.020Z,94.32
2022-12-18T14:23:31.108Z,86.95
2022-12-18T14:25:13.998Z,77.88
2022-12-18T14:26:45.806Z,87.97
2022-12-18T14:28:18.924Z,87.47
2022-12-18T14:29:50.725Z,83.55
2022-12-18T14:31:23.083Z,98.25
2022-12-18T14:33:02.669Z,93.28
2022-12-18T14:34:34.498Z,94.10
2022-12-18T14:36:06.811Z,98.63
2022-12-18T14:37:38.590Z,99.18
2022-12-18T14:39:16.183Z,112.72
2022-12-18T14:40:47.951Z,93.93
2022-12-18T14:42:19.833Z,97.45
2022-12-18T14:43:55.312Z,124.45
2022-12-18T14:45:43.057Z,130.93
2022-12-18T14:47:15.875Z,97.63
2022-12-18T14:48:47.845Z,82.53
2022-12-18T14:50:19.681Z,81.55
2022-12-18T14:51:52.774Z,80.95
2022-12-18T14:53:27.235Z,74.97
2022-12-18T14:54:58.944Z,77.30
2022-12-18T14:56:31.473Z,81.22
2022-12-18T14:58:03.405Z,79.85
2022-12-18T14:59:36.514Z,81.03
2022-12-18T15:01:08.263Z,93.53
2022-12-18T15:02:40.187Z,76.97
2022-12-18T15:04:24.599Z,81.32
2022-12-18T15:05:56.348Z,94.10
2022-12-18T15:07:28.094Z,86.50
2022-12-18T15:09:00.099Z,73.72
2022-12-18T15:10:32.535Z,75.35
2022-12-18T15:12:04.735Z,79.88
2022-12-18T15:13:36.491Z,79.93
2022-12-18T15:15:42.318Z,82.18
2022-12-18T15:17:20.243Z,78.47
2022-12-18T15:18:52.000Z,87.78
2022-12-18T15:20:23.757Z,79.80
2022-12-18T15:21:55.487Z,77.93
2022-12-18T15:23:28.533Z,71.03
2022-12-18T15:25:00.599Z,73.95
2022-12-18T15:26:32.271Z,67.80
2022-12-18T15:28:04.213Z,70.88
2022-12-18T15:29:35.967Z,83.53
2022-12-18T15:31:35.885Z,122.97
2022-12-18T15:33:25.952Z,89.40
2022-12-18T15:35:04.895Z,92.18
2022-12-18T15:36:39.516Z,106.72
2022-12-18T15:38:11.347Z,101.35
2022-12-18T15:39:43.146Z,104.72
2022-12-18T15:41:17.783Z,92.85
2022-12-18T15:43:12.148Z,100.30
2022-12-18T15:44:44.447Z,88.97
2022-12-18T15:46:17.901Z,91.88
2022-12-18T15:47:49.804Z,84.28
2022-12-18T15:49:23.219Z,81.80
2022-12-18T15:50:57.620Z,84.13
2022-12-18T15:52:29.710Z,87.55
2022-12-18T15:54:02.252Z,93.50
2022-12-18T15:55:55.337Z,87.70
2022-12-18T15:57:31.161Z,87.18
2022-12-18T15:59:03.041Z,82.93
2022-12-18T16:00:35.278Z,84.32
2022-12-18T16:02:09.726Z,113.40
2022-12-18T16:03:41.987Z,83.95
2022-12-18T16:05:16.645Z,96.60
2022-12-18T16:07:13.928Z,88.72
2022-12-18T16:08:40.284Z,85.13
2022-12-18T16:10:13.432Z,84.03
2022-12-18T16:11:47.163Z,95.10
2022-12-18T16:13:19.688Z,96.13
2022-12-18T16:14:51.424Z,95.82
2022-12-18T16:16:23.583Z,94.63
2022-12-18T16:17:56.128Z,87.25
2022-12-18T16:19:27.989Z,93.22
2022-12-18T16:21:09.036Z,97.60
2022-12-18T16:22:40.899Z,96.55
2022-12-18T16:24:15.290Z,97.97
2022-12-18T16:25:47.487Z,100.25
2022-12-18T16:27:19.475Z,78.47
2022-12-18T16:28:51.272Z,90.53
2022-12-18T16:30:24.024Z,89.63
2022-12-18T16:31:57.758Z,77.63
2022-12-18T16:33:29.663Z,72.85
2022-12-18T16:35:01.733Z,75.75
2022-12-18T16:36:35.057Z,85.40
2022-12-18T16:38:06.888Z,100.38
2022-12-18T16:39:38.874Z,86.10
2022-12-18T16:41:33.404Z,97.65
2022-12-18T16:43:05.243Z,89.47
2022-12-18T16:44:37.546Z,81.05
2022-12-18T16:46:11.383Z,91.97
2022-12-18T16:47:43.375Z,88.35
2022-12-18T16:49:15.572Z,90.95
2022-12-18T16:50:47.341Z,96.72
2022-12-18T16:52:20.787Z,85.10
2022-12-18T16:53:53.293Z,81.10
2022-12-18T16:55:25.034Z,84.10
2022-12-18T16:56:56.998Z,98.05
2022-12-18T16:58:28.859Z,90.28
2022-12-18T17:00:05.050Z,80.72
2022-12-18T17:01:37.981Z,99.00
2022-12-18T17:03:10.108Z,104.30
2022-12-18T17:04:43.938Z,92.85
2022-12-18T17:06:18.990Z,95.10
2022-12-18T17:07:59.852Z,95.60
2022-12-18T17:09:31.883Z,75.68
2022-12-18T17:11:06.928Z,84.47
2022-12-18T17:12:38.691Z,78.78
2022-12-18T17:14:12.473Z,86.00
2022-12-18T17:15:44.346Z,86.22
2022-12-18T17:17:21.378Z,92.82
2022-12-18T17:18:55.863Z,78.07
2022-12-18T17:20:27.623Z,86.55
2022-12-18T17:21:59.542Z,94.03
2022-12-18T17:23:32.813Z,87.15
2022-12-18T17:25:05.296Z,99.13
2022-12-18T17:26:37.166Z,91.72
2022-12-18T17:28:09.096Z,79.30
2022-12-18T17:29:48.050Z,87.25
2022-12-18T17:31:21.814Z,80.95
2022-12-18T17:32:53.717Z,90.00
2022-12-18T17:34:25.593Z,92.20
2022-12-18T17:35:58.899Z,85.35
2022-12-18T17:37:30.761Z,93.22
2022-12-18T17:39:07.126Z,84.38
2022-12-18T17:40:46.145Z,78.65
2022-12-18T17:42:18.399Z,86.20
2022-12-18T17:43:53.127Z,97.85
2022-12-18T17:45:25.068Z,93.55
2022-12-18T17:46:57.272Z,79.95
2022-12-18T17:48:29.159Z,73.82
2022-12-18T17:50:00.933Z,91.72
2022-12-18T17:51:32.697Z,94.07
2022-12-18T17:53:07.070Z,96.80
2022-12-18T17:54:42.268Z,80.55
2022-12-18T17:56:15.554Z,89.32
2022-12-18T17:57:47.721Z,91.38
2022-12-18T17:59:19.571Z,85.45
2022-12-18T18:00:51.584Z,88.25
2022-12-18T18:02:23.524Z,80.53
2022-12-18T18:04:00.340Z,80.93
2022-12-18T18:05:32.246Z,76.63
2022-12-18T18:07:04.106Z,90.22
2022-12-18T18:08:38.116Z,93.03
2022-12-18T18:10:14.987Z,96.95
2022-12-18T18:12:19.074Z,104.22
2022-12-18T18:14:02.565Z,88.60
2022-12-18T18:15:34.419Z,97.82
2022-12-18T18:17:07.278Z,89.25
2022-12-18T18:18:39.805Z,82.72
2022-12-18T18:20:17.848Z,99.13
2022-12-18T18:21:54.639Z,93.18
2022-12-18T18:25:03.908Z,82.20
2022-12-18T18:26:12.203Z,80.60
2022-12-18T18:27:19.751Z,97.78
2022-12-18T18:28:54.002Z,96.13
2022-12-18T18:30:26.283Z,114.80
2022-12-18T18:31:58.437Z,100.32
2022-12-18T18:33:30.723Z,87.72
2022-12-18T18:35:02.427Z,75.80
2022-12-18T18:36:34.273Z,93.40
2022-12-18T18:38:08.183Z,84.75
2022-12-18T18:39:40.010Z,87.20
2022-12-18T18:41:13.316Z,77.75
2022-12-18T18:42:45.321Z,96.35
2022-12-18T18:44:17.850Z,89.70
2022-12-18T18:45:49.759Z,91.82
2022-12-18T18:47:21.696Z,102.00
2022-12-18T18:48:53.876Z,97.38
2022-12-18T18:50:26.646Z,83.43
2022-12-18T18:51:59.355Z,94.97
2022-12-18T18:53:31.357Z,105.00
2022-12-18T18:55:13.346Z,91.45
2022-12-18T18:58:42.112Z,86.22
2022-12-18T19:00:15.480Z,84.97
2022-12-18T19:01:48.490Z,84.82
2022-12-18T19:03:21.041Z,82.03
2022-12-18T19:04:54.238Z,92.15
2022-12-18T19:06:26.793Z,90.32
2022-12-18T19:07:58.781Z,95.07
2022-12-18T19:09:31.333Z,98.55
2022-12-18T19:11:04.112Z,88.50
2022-12-18T19:12:55.643Z,83.82
2022-12-18T19:14:29.697Z,74.32
2022-12-18T19:16:06.841Z,91.28
2022-12-18T19:17:38.832Z,87.28
2022-12-18T19:19:11.703Z,99.03
2022-12-18T19:20:43.557Z,79.18
2022-12-18T19:22:15.467Z,79.18
2022-12-18T19:23:50.236Z,90.38
2022-12-18T19:25:22.005Z,89.22
2022-12-18T19:26:58.083Z,92.50
2022-12-18T19:28:31.579Z,113.88
2022-12-18T19:30:03.858Z,96.40
2022-12-18T19:31:37.026Z,96.13
2022-12-18T19:33:34.608Z,98.82
2022-12-18T19:35:01.060Z,93.28
2022-12-18T19:36:33.701Z,109.68
2022-12-18T19:38:05.578Z,93.13
2022-12-18T19:39:37.578Z,87.22
2022-12-18T19:41:09.364Z,93.57
2022-12-18T19:42:41.243Z,87.35
2022-12-18T19:44:15.442Z,86.97
2022-12-18T19:45:47.204Z,89.65
2022-12-18T19:47:19.004Z,89.30
2022-12-18T19:48:50.810Z,80.65
2022-12-18T19:50:22.645Z,91.13
2022-12-18T19:51:54.582Z,81.60
2022-12-18T19:53:26.453Z,78.88
2022-12-18T19:54:58.380Z,91.35
2022-12-18T19:56:31.124Z,104.15
2022-12-18T19:58:02.938Z,107.45
2022-12-18T19:59:36.966Z,103.63
2022-12-18T20:01:10.851Z,112.68
2022-12-18T20:02:44.762Z,112.85
2022-12-18T20:04:16.650Z,100.45
2022-12-18T20:05:48.480Z,82.18
2022-12-18T20:07:20.269Z,90.65
2022-12-18T20:08:52.387Z,100.72
2022-12-18T20:10:25.758Z,122.05
2022-12-18T20:11:57.589Z,120.38
2022-12-18T20:13:29.570Z,106.93
2022-12-18T20:15:02.766Z,118.85
2022-12-18T20:16:34.657Z,128.18
2022-12-18T20:18:07.402Z,116.00